createdAt,value
2018-02-12T00:00:42.645Z,4.70
2018-02-12T00:01:42.660Z,4.94
2018-02-12T00:02:42.672Z,4.37
2018-02-12T00:03:42.688Z,4.37
2018-02-12T00:04:42.696Z,4.58
2018-02-12T00:05:42.710Z,4.73
2018-02-12T00:06:42.728Z,4.83
2018-02-12T00:07:42.746Z,4.80
2018-02-12T00:08:42.746Z,4.83
2018-02-12T00:09:42.761Z,4.89
2018-02-12T00:10:42.777Z,4.92
2018-02-12T00:11:42.788Z,4.67
2018-02-12T00:12:42.807Z,4.94
2018-02-12T00:13:42.814Z,5.02
2018-02-12T00:14:42.835Z,4.91
2018-02-12T00:15:42.838Z,4.96
2018-02-12T00:16:42.851Z,4.98
2018-02-12T00:17:42.868Z,4.95
2018-02-12T00:18:42.879Z,4.96
2018-02-12T00:19:42.894Z,4.96
2018-02-12T00:20:42.904Z,5.07
2018-02-12T00:21:42.924Z,4.96
2018-02-12T00:22:42.930Z,4.98
2018-02-12T00:23:42.946Z,4.95
2018-02-12T00:24:42.955Z,5.09
2018-02-12T00:25:42.967Z,4.83
2018-02-12T00:26:42.983Z,4.83
2018-02-12T00:27:42.992Z,4.83
2018-02-12T00:28:43.014Z,4.94
2018-02-12T00:29:43.024Z,5.19
2018-02-12T00:30:43.031Z,5.12
2018-02-12T00:31:43.050Z,4.91
2018-02-12T00:32:43.061Z,5.01
2018-02-12T00:33:43.074Z,4.98
2018-02-12T00:34:43.088Z,4.89
2018-02-12T00:35:43.102Z,4.98
2018-02-12T00:36:43.117Z,4.76
2018-02-12T00:37:43.132Z,4.79
2018-02-12T00:38:43.140Z,4.69
2018-02-12T00:39:43.152Z,4.96
2018-02-12T00:40:43.162Z,5.14
2018-02-12T00:41:43.190Z,5.16
2018-02-12T00:42:43.193Z,5.37
2018-02-12T00:43:43.204Z,5.30
2018-02-12T00:44:43.225Z,5.20
2018-02-12T00:45:43.233Z,5.31
2018-02-12T00:46:43.247Z,5.28
2018-02-12T00:47:43.275Z,5.05
2018-02-12T00:48:43.273Z,4.83
2018-02-12T00:49:43.286Z,4.96
2018-02-12T00:50:43.440Z,5.02
2018-02-12T00:51:43.327Z,4.92
2018-02-12T00:52:43.324Z,4.95
2018-02-12T00:53:43.340Z,5.09
2018-02-12T00:54:43.353Z,5.16
2018-02-12T00:55:43.360Z,5.28
2018-02-12T00:56:43.381Z,5.10
2018-02-12T00:57:43.394Z,5.28
2018-02-12T00:58:43.406Z,5.22
2018-02-12T00:59:43.424Z,5.14
2018-02-12T01:00:43.439Z,5.25
2018-02-12T01:01:43.447Z,5.12
2018-02-12T01:02:43.465Z,5.12
2018-02-12T01:03:43.469Z,4.98
2018-02-12T01:04:43.551Z,5.14
2018-02-12T01:05:43.497Z,5.13
2018-02-12T01:06:43.511Z,4.86
2018-02-12T01:07:43.523Z,4.92
2018-02-12T01:08:43.596Z,5.12
2018-02-12T01:09:43.547Z,5.14
2018-02-12T01:10:43.566Z,5.10
2018-02-12T01:11:43.585Z,5.17
2018-02-12T01:12:43.590Z,5.05
2018-02-12T01:13:43.606Z,5.16
2018-02-12T01:14:43.617Z,5.04
2018-02-12T01:15:43.634Z,5.13
2018-02-12T01:16:43.646Z,5.12
2018-02-12T01:17:43.653Z,4.99
2018-02-12T01:18:43.671Z,4.92
2018-02-12T01:19:43.685Z,5.31
2018-02-12T01:20:43.696Z,5.10
2018-02-12T01:21:43.707Z,5.17
2018-02-12T01:22:43.720Z,5.14
2018-02-12T01:23:43.735Z,5.23
2018-02-12T01:24:43.749Z,5.04
2018-02-12T01:25:43.781Z,5.12
2018-02-12T01:26:43.772Z,5.13
2018-02-12T01:27:43.792Z,5.12
2018-02-12T01:28:43.802Z,5.17
2018-02-12T01:29:43.818Z,5.14
2018-02-12T01:30:43.827Z,5.19
2018-02-12T01:31:43.842Z,5.12
2018-02-12T01:32:43.857Z,5.07
2018-02-12T01:33:43.931Z,5.04
2018-02-12T01:34:43.884Z,5.05
2018-02-12T01:35:43.895Z,5.10
2018-02-12T01:36:43.934Z,5.07
2018-02-12T01:37:43.929Z,5.17
2018-02-12T01:38:43.938Z,5.13
2018-02-12T01:39:43.946Z,4.98
2018-02-12T01:40:43.960Z,4.95
2018-02-12T01:41:43.974Z,5.09
2018-02-12T01:42:44.004Z,5.05
2018-02-12T01:43:44.003Z,4.91
2018-02-12T01:44:44.016Z,4.99
2018-02-12T01:45:44.052Z,4.94
2018-02-12T01:46:44.039Z,4.98
2018-02-12T01:47:44.052Z,5.04
2018-02-12T01:48:44.064Z,5.01
2018-02-12T01:49:44.078Z,5.12
2018-02-12T01:50:44.093Z,5.14
2018-02-12T01:51:44.104Z,5.30
2018-02-12T01:52:44.121Z,5.19
2018-02-12T01:53:44.143Z,5.28
2018-02-12T01:54:44.150Z,5.22
2018-02-12T01:55:44.158Z,4.95
2018-02-12T01:56:44.184Z,5.09
2018-02-12T01:57:44.185Z,5.07
2018-02-12T01:58:44.197Z,5.07
2018-02-12T01:59:44.218Z,5.17
2018-02-12T02:00:44.225Z,4.98
2018-02-12T02:01:44.238Z,4.96
2018-02-12T02:02:44.251Z,4.99
2018-02-12T02:03:44.263Z,5.02
2018-02-12T02:04:44.276Z,4.95
2018-02-12T02:05:44.291Z,4.79
2018-02-12T02:06:44.306Z,4.86
2018-02-12T02:07:44.316Z,4.92
2018-02-12T02:08:44.333Z,5.02
2018-02-12T02:09:44.343Z,5.09
2018-02-12T02:10:44.358Z,5.19
2018-02-12T02:11:44.369Z,5.25
2018-02-12T02:12:44.379Z,5.22
2018-02-12T02:13:44.395Z,5.19
2018-02-12T02:14:44.412Z,5.12
2018-02-12T02:15:44.424Z,5.13
2018-02-12T02:16:44.437Z,5.12
2018-02-12T02:17:44.448Z,5.12
2018-02-12T02:18:44.458Z,5.07
2018-02-12T02:19:44.476Z,4.94
2018-02-12T02:20:44.488Z,5.05
2018-02-12T02:21:44.506Z,5.10
2018-02-12T02:22:44.521Z,5.10
2018-02-12T02:23:44.527Z,5.10
2018-02-12T02:24:44.541Z,5.14
2018-02-12T02:25:44.558Z,5.07
2018-02-12T02:26:44.564Z,5.22
2018-02-12T02:27:44.581Z,5.22
2018-02-12T02:28:44.599Z,5.10
2018-02-12T02:29:44.607Z,5.09
2018-02-12T02:30:44.627Z,5.19
2018-02-12T02:31:44.639Z,5.14
2018-02-12T02:32:44.650Z,4.99
2018-02-12T02:33:44.720Z,5.12
2018-02-12T02:34:44.674Z,5.10
2018-02-12T02:35:44.685Z,4.96
2018-02-12T02:36:44.695Z,4.99
2018-02-12T02:37:44.711Z,5.07
2018-02-12T02:38:44.722Z,5.09
2018-02-12T02:39:44.741Z,5.01
2018-02-12T02:40:44.767Z,5.09
2018-02-12T02:41:44.765Z,5.02
2018-02-12T02:42:44.778Z,4.95
2018-02-12T02:43:44.792Z,4.96
2018-02-12T02:44:44.803Z,5.01
2018-02-12T02:45:44.812Z,5.02
2018-02-12T02:46:44.826Z,4.94
2018-02-12T02:47:44.842Z,4.84
2018-02-12T02:48:44.853Z,4.88
2018-02-12T02:49:44.870Z,4.80
2018-02-12T02:50:44.882Z,4.84
2018-02-12T02:51:44.897Z,4.73
2018-02-12T02:52:44.903Z,4.76
2018-02-12T02:53:44.924Z,4.62
2018-02-12T02:54:44.932Z,4.99
2018-02-12T02:55:44.947Z,5.01
2018-02-12T02:56:44.959Z,4.91
2018-02-12T02:57:44.978Z,4.88
2018-02-12T02:58:44.986Z,4.95
2018-02-12T02:59:45.000Z,4.88
2018-02-12T03:00:45.032Z,5.04
2018-02-12T03:01:45.027Z,4.94
2018-02-12T03:02:45.037Z,4.73
2018-02-12T03:03:45.049Z,4.67
2018-02-12T03:04:45.061Z,4.79
2018-02-12T03:05:45.074Z,4.92
2018-02-12T03:06:45.093Z,4.83
2018-02-12T03:07:45.133Z,4.86
2018-02-12T03:08:45.109Z,4.96
2018-02-12T03:09:45.123Z,4.77
2018-02-12T03:10:45.137Z,4.64
2018-02-12T03:11:45.200Z,4.64
2018-02-12T03:12:45.162Z,4.77
2018-02-12T03:13:45.179Z,4.79
2018-02-12T03:14:45.190Z,4.67
2018-02-12T03:15:45.205Z,4.76
2018-02-12T03:16:45.214Z,4.94
2018-02-12T03:17:45.223Z,4.96
2018-02-12T03:18:45.239Z,4.79
2018-02-12T03:19:45.250Z,4.94
2018-02-12T03:20:45.265Z,4.84
2018-02-12T03:21:45.278Z,4.91
2018-02-12T03:22:45.291Z,4.65
2018-02-12T03:23:45.314Z,4.79
2018-02-12T03:24:45.323Z,4.91
2018-02-12T03:25:45.332Z,4.70
2018-02-12T03:26:45.342Z,4.91
2018-02-12T03:27:45.353Z,4.96
2018-02-12T03:28:45.372Z,4.89
2018-02-12T03:29:45.380Z,4.84
2018-02-12T03:30:45.396Z,4.84
2018-02-12T03:31:45.406Z,4.92
2018-02-12T03:32:45.417Z,4.91
2018-02-12T03:33:45.434Z,4.91
2018-02-12T03:34:45.445Z,4.99
2018-02-12T03:35:45.465Z,5.04
2018-02-12T03:36:45.469Z,4.95
2018-02-12T03:37:45.482Z,4.95
2018-02-12T03:38:45.495Z,4.99
2018-02-12T03:39:45.507Z,4.96
2018-02-12T03:40:45.531Z,4.98
2018-02-12T03:41:45.539Z,4.76
2018-02-12T03:42:45.545Z,4.96
2018-02-12T03:43:45.562Z,5.02
2018-02-12T03:44:45.570Z,4.69
2018-02-12T03:45:45.615Z,4.75
2018-02-12T03:46:45.598Z,4.92
2018-02-12T03:47:45.609Z,4.96
2018-02-12T03:48:45.631Z,4.62
2018-02-12T03:49:45.635Z,4.73
2018-02-12T03:50:45.651Z,4.98
2018-02-12T03:51:45.661Z,4.92
2018-02-12T03:52:45.673Z,4.73
2018-02-12T03:53:45.688Z,4.94
2018-02-12T03:54:45.700Z,5.05
2018-02-12T03:55:45.713Z,4.76
2018-02-12T03:56:45.728Z,4.94
2018-02-12T03:57:45.739Z,4.80
2018-02-12T03:58:45.752Z,5.10
2018-02-12T03:59:45.792Z,5.14
2018-02-12T04:00:45.819Z,4.98
2018-02-12T04:01:45.791Z,4.84
2018-02-12T04:02:45.810Z,4.62
2018-02-12T04:03:45.817Z,4.84
2018-02-12T04:04:45.832Z,5.07
2018-02-12T04:05:45.850Z,4.95
2018-02-12T04:06:45.858Z,4.55
2018-02-12T04:07:45.870Z,4.54
2018-02-12T04:08:45.881Z,4.76
2018-02-12T04:09:45.899Z,4.91
2018-02-12T04:10:45.913Z,4.77
2018-02-12T04:11:45.925Z,4.76
2018-02-12T04:12:45.941Z,4.70
2018-02-12T04:13:45.954Z,4.67
2018-02-12T04:14:45.966Z,4.80
2018-02-12T04:15:45.979Z,4.99
2018-02-12T04:16:45.991Z,4.67
2018-02-12T04:17:46.007Z,4.64
2018-02-12T04:18:46.015Z,4.55
2018-02-12T04:19:46.029Z,4.76
2018-02-12T04:20:46.044Z,4.80
2018-02-12T04:21:46.056Z,4.64
2018-02-12T04:22:46.069Z,4.52
2018-02-12T04:23:46.083Z,4.69
2018-02-12T04:24:46.098Z,4.69
2018-02-12T04:25:46.116Z,4.79
2018-02-12T04:26:46.122Z,4.88
2018-02-12T04:27:46.132Z,4.79
2018-02-12T04:28:46.150Z,4.67
2018-02-12T04:29:46.162Z,4.84
2018-02-12T04:30:46.175Z,4.84
2018-02-12T04:31:46.187Z,4.79
2018-02-12T04:32:46.213Z,4.83
2018-02-12T04:33:46.212Z,4.54
2018-02-12T04:34:46.229Z,4.42
2018-02-12T04:35:46.237Z,4.47
2018-02-12T04:36:46.251Z,4.46
2018-02-12T04:37:46.266Z,4.37
2018-02-12T04:38:46.278Z,4.36
2018-02-12T04:39:46.290Z,4.32
2018-02-12T04:40:46.303Z,4.32
2018-02-12T04:41:46.316Z,4.42
2018-02-12T04:42:46.332Z,4.26
2018-02-12T04:43:46.342Z,4.25
2018-02-12T04:44:46.353Z,4.29
2018-02-12T04:45:46.367Z,4.40
2018-02-12T04:46:46.382Z,4.57
2018-02-12T04:47:46.395Z,4.55
2018-02-12T04:48:46.406Z,4.25
2018-02-12T04:49:46.440Z,4.43
2018-02-12T04:50:46.433Z,4.55
2018-02-12T04:51:46.445Z,4.46
2018-02-12T04:52:46.461Z,4.37
2018-02-12T04:53:46.470Z,4.32
2018-02-12T04:54:46.486Z,4.36
2018-02-12T04:55:46.490Z,4.39
2018-02-12T04:56:46.511Z,4.40
2018-02-12T04:57:46.527Z,4.40
2018-02-12T04:58:46.535Z,4.21
2018-02-12T04:59:46.547Z,4.08
2018-02-12T05:00:46.559Z,4.08
2018-02-12T05:01:46.579Z,4.26
2018-02-12T05:02:46.592Z,4.21
2018-02-12T05:03:46.603Z,4.42
2018-02-12T05:04:46.613Z,4.51
2018-02-12T05:05:46.626Z,4.52
2018-02-12T05:06:46.639Z,4.54
2018-02-12T05:07:46.654Z,4.22
2018-02-12T05:08:46.663Z,4.25
2018-02-12T05:09:46.678Z,4.55
2018-02-12T05:10:46.689Z,4.50
2018-02-12T05:11:46.703Z,4.46
2018-02-12T05:12:46.721Z,4.22
2018-02-12T05:13:46.729Z,4.43
2018-02-12T05:14:46.744Z,4.39
2018-02-12T05:15:46.756Z,4.43
2018-02-12T05:16:46.773Z,4.22
2018-02-12T05:17:46.787Z,4.25
2018-02-12T05:18:46.796Z,4.39
2018-02-12T05:19:46.807Z,4.28
2018-02-12T05:20:46.823Z,4.37
2018-02-12T05:21:46.834Z,4.54
2018-02-12T05:22:46.847Z,4.65
2018-02-12T05:23:46.862Z,4.61
2018-02-12T05:24:46.876Z,4.65
2018-02-12T05:25:46.886Z,4.65
2018-02-12T05:26:46.897Z,4.52
2018-02-12T05:27:46.909Z,4.52
2018-02-12T05:28:46.926Z,4.39
2018-02-12T05:29:46.936Z,4.57
2018-02-12T05:30:46.948Z,4.62
2018-02-12T05:31:46.974Z,4.70
2018-02-12T05:32:46.975Z,4.75
2018-02-12T05:33:46.995Z,4.72
2018-02-12T05:34:47.001Z,4.77
2018-02-12T05:35:47.013Z,4.54
2018-02-12T05:36:47.028Z,4.52
2018-02-12T05:37:47.039Z,4.46
2018-02-12T05:38:47.050Z,4.08
2018-02-12T05:39:47.068Z,3.83
2018-02-12T05:40:47.085Z,4.04
2018-02-12T05:41:47.104Z,3.88
2018-02-12T05:42:47.106Z,4.15
2018-02-12T05:43:47.119Z,4.46
2018-02-12T05:44:47.126Z,4.29
2018-02-12T05:45:47.147Z,4.25
2018-02-12T05:46:47.158Z,4.25
2018-02-12T05:47:47.173Z,4.21
2018-02-12T05:48:47.185Z,4.54
2018-02-12T05:49:47.197Z,4.50
2018-02-12T05:50:47.247Z,4.55
2018-02-12T05:51:47.226Z,4.26
2018-02-12T05:52:47.237Z,4.21
2018-02-12T05:53:47.250Z,4.08
2018-02-12T05:54:47.262Z,4.21
2018-02-12T05:55:47.278Z,4.10
2018-02-12T05:56:47.290Z,4.39
2018-02-12T05:57:47.307Z,4.08
2018-02-12T05:58:47.314Z,4.18
2018-02-12T05:59:47.330Z,4.26
2018-02-12T06:00:47.340Z,4.52
2018-02-12T06:01:47.356Z,4.39
2018-02-12T06:02:47.361Z,4.19
2018-02-12T06:03:47.375Z,3.88
2018-02-12T06:04:47.395Z,3.83
2018-02-12T06:05:47.407Z,4.07
2018-02-12T06:06:47.427Z,4.26
2018-02-12T06:07:47.434Z,4.39
2018-02-12T06:08:47.447Z,4.51
2018-02-12T06:09:47.460Z,4.18
2018-02-12T06:10:47.472Z,4.39
2018-02-12T06:11:47.485Z,4.52
2018-02-12T06:12:47.496Z,4.52
2018-02-12T06:13:47.511Z,4.19
2018-02-12T06:14:47.530Z,4.26
2018-02-12T06:15:47.584Z,4.29
2018-02-12T06:16:47.550Z,4.50
2018-02-12T06:17:47.560Z,4.44
2018-02-12T06:18:47.577Z,4.51
2018-02-12T06:19:47.589Z,4.28
2018-02-12T06:20:47.605Z,4.39
2018-02-12T06:21:47.617Z,4.37
2018-02-12T06:22:47.636Z,4.51
2018-02-12T06:23:47.643Z,4.57
2018-02-12T06:24:47.655Z,4.51
2018-02-12T06:25:47.670Z,4.39
2018-02-12T06:26:47.680Z,4.46
2018-02-12T06:27:47.694Z,4.04
2018-02-12T06:28:47.706Z,4.12
2018-02-12T06:29:47.722Z,4.01
2018-02-12T06:30:47.732Z,4.39
2018-02-12T06:31:47.759Z,4.37
2018-02-12T06:32:47.754Z,4.04
2018-02-12T06:33:47.774Z,4.25
2018-02-12T06:34:47.780Z,4.42
2018-02-12T06:35:47.791Z,4.37
2018-02-12T06:36:47.808Z,4.26
2018-02-12T06:37:47.822Z,4.00
2018-02-12T06:38:47.835Z,4.33
2018-02-12T06:39:47.885Z,4.32
2018-02-12T06:40:47.868Z,4.26
2018-02-12T06:41:47.873Z,4.42
2018-02-12T06:42:47.886Z,4.12
2018-02-12T06:43:47.991Z,4.12
2018-02-12T06:44:47.912Z,4.34
2018-02-12T06:45:47.927Z,4.40
2018-02-12T06:46:47.982Z,4.01
2018-02-12T06:47:47.946Z,4.01
2018-02-12T06:48:47.964Z,4.15
2018-02-12T06:49:48.008Z,4.29
2018-02-12T06:50:47.989Z,4.19
2018-02-12T06:51:48.002Z,4.26
2018-02-12T06:52:48.014Z,3.85
2018-02-12T06:53:48.073Z,3.96
2018-02-12T06:54:48.047Z,3.86
2018-02-12T06:55:48.070Z,4.22
2018-02-12T06:56:48.068Z,4.08
2018-02-12T06:57:48.105Z,4.04
2018-02-12T06:58:48.094Z,4.06
2018-02-12T06:59:48.107Z,4.12
2018-02-12T07:00:48.123Z,4.01
2018-02-12T07:01:48.131Z,4.14
2018-02-12T07:02:48.142Z,4.25
2018-02-12T07:03:48.155Z,4.10
2018-02-12T07:04:48.173Z,4.25
2018-02-12T07:05:48.187Z,4.28
2018-02-12T07:06:48.196Z,4.36
2018-02-12T07:07:48.207Z,3.96
2018-02-12T07:08:48.232Z,4.36
2018-02-12T07:09:48.237Z,4.44
2018-02-12T07:10:48.245Z,4.32
2018-02-12T07:11:48.278Z,4.44
2018-02-12T07:12:48.272Z,4.24
2018-02-12T07:13:48.285Z,4.21
2018-02-12T07:14:48.303Z,4.36
2018-02-12T07:15:48.317Z,3.92
2018-02-12T07:16:48.325Z,4.28
2018-02-12T07:17:48.337Z,4.24
2018-02-12T07:18:48.352Z,4.36
2018-02-12T07:19:48.365Z,4.29
2018-02-12T07:20:48.375Z,4.43
2018-02-12T07:21:48.389Z,4.44
2018-02-12T07:22:48.405Z,4.50
2018-02-12T07:23:48.415Z,4.07
2018-02-12T07:24:48.421Z,4.42
2018-02-12T07:25:48.464Z,4.43
2018-02-12T07:26:48.455Z,4.42
2018-02-12T07:27:48.466Z,4.32
2018-02-12T07:28:48.490Z,4.42
2018-02-12T07:29:48.495Z,4.22
2018-02-12T07:30:48.508Z,4.32
2018-02-12T07:31:48.526Z,4.54
2018-02-12T07:32:48.538Z,4.39
2018-02-12T07:33:48.545Z,4.67
2018-02-12T07:34:48.557Z,4.72
2018-02-12T07:35:48.572Z,4.80
2018-02-12T07:36:48.602Z,4.61
2018-02-12T07:37:48.598Z,4.47
2018-02-12T07:38:48.609Z,4.03
2018-02-12T07:39:48.625Z,4.25
2018-02-12T07:40:48.642Z,4.34
2018-02-12T07:41:48.649Z,4.61
2018-02-12T07:42:48.664Z,4.83
2018-02-12T07:43:48.674Z,4.57
2018-02-12T07:44:48.691Z,4.83
2018-02-12T07:45:48.701Z,4.75
2018-02-12T07:46:48.717Z,4.57
2018-02-12T07:47:48.728Z,4.98
2018-02-12T07:48:48.743Z,4.73
2018-02-12T07:49:48.756Z,4.67
2018-02-12T07:50:48.764Z,4.77
2018-02-12T07:51:48.782Z,4.80
2018-02-12T07:52:48.794Z,4.91
2018-02-12T07:53:48.807Z,4.99
2018-02-12T07:54:48.819Z,4.88
2018-02-12T07:55:48.835Z,4.79
2018-02-12T07:56:48.845Z,4.99
2018-02-12T07:57:48.867Z,4.72
2018-02-12T07:58:48.871Z,4.73
2018-02-12T07:59:48.885Z,4.94
2018-02-12T08:00:48.901Z,4.89
2018-02-12T08:01:48.912Z,4.95
2018-02-12T08:02:48.924Z,4.94
2018-02-12T08:03:48.936Z,4.51
2018-02-12T08:04:48.952Z,4.54
2018-02-12T08:05:48.965Z,4.80
2018-02-12T08:06:48.976Z,4.69
2018-02-12T08:07:48.988Z,4.76
2018-02-12T08:08:49.008Z,4.69
2018-02-12T08:09:49.013Z,4.84
2018-02-12T08:10:49.028Z,4.94
2018-02-12T08:11:49.042Z,4.67
2018-02-12T08:12:49.059Z,5.04
2018-02-12T08:13:49.067Z,5.14
2018-02-12T08:14:49.085Z,5.12
2018-02-12T08:15:49.098Z,4.44
2018-02-12T08:16:49.113Z,4.65
2018-02-12T08:17:49.167Z,4.57
2018-02-12T08:18:49.139Z,4.72
2018-02-12T08:19:49.147Z,4.76
2018-02-12T08:20:49.172Z,4.73
2018-02-12T08:21:49.169Z,4.84
2018-02-12T08:22:49.194Z,5.16
2018-02-12T08:23:49.202Z,5.01
2018-02-12T08:24:49.214Z,5.13
2018-02-12T08:25:49.228Z,5.34
2018-02-12T08:26:49.286Z,5.43
2018-02-12T08:27:49.255Z,5.17
2018-02-12T08:28:49.267Z,5.28
2018-02-12T08:29:49.316Z,4.83
2018-02-12T08:30:49.346Z,4.92
2018-02-12T08:31:49.308Z,4.86
2018-02-12T08:32:49.316Z,5.09
2018-02-12T08:33:49.347Z,4.98
2018-02-12T08:34:49.355Z,4.57
2018-02-12T08:35:49.361Z,4.99
2018-02-12T08:36:49.378Z,4.92
2018-02-12T08:37:49.395Z,4.70
2018-02-12T08:38:49.402Z,4.77
2018-02-12T08:39:49.428Z,5.17
2018-02-12T08:40:49.430Z,5.35
2018-02-12T08:41:49.444Z,5.14
2018-02-12T08:42:49.458Z,5.17
2018-02-12T08:43:49.475Z,5.25
2018-02-12T08:44:49.482Z,5.28
2018-02-12T08:45:49.532Z,5.31
2018-02-12T08:46:49.514Z,5.07
2018-02-12T08:47:49.521Z,5.32
2018-02-12T08:48:49.541Z,5.67
2018-02-12T08:49:49.557Z,6.03
2018-02-12T08:50:49.572Z,5.40
2018-02-12T08:51:49.605Z,4.96
2018-02-12T08:52:49.598Z,4.95
2018-02-12T08:53:49.688Z,5.14
2018-02-12T08:54:49.635Z,5.19
2018-02-12T08:55:49.634Z,5.09
2018-02-12T08:56:49.649Z,5.22
2018-02-12T08:57:49.663Z,5.19
2018-02-12T08:58:49.692Z,4.77
2018-02-12T08:59:49.699Z,4.57
2018-02-12T09:00:49.705Z,4.58
2018-02-12T09:01:49.714Z,4.94
2018-02-12T09:02:49.726Z,5.04
2018-02-12T09:03:49.739Z,4.89
2018-02-12T09:04:49.758Z,4.80
2018-02-12T09:05:49.772Z,4.75
2018-02-12T09:06:49.803Z,4.96
2018-02-12T09:07:49.810Z,4.67
2018-02-12T09:08:49.811Z,4.94
2018-02-12T09:09:49.826Z,4.76
2018-02-12T09:10:49.838Z,4.84
2018-02-12T09:11:49.853Z,4.94
2018-02-12T09:12:49.869Z,5.12
2018-02-12T09:13:49.883Z,4.83
2018-02-12T09:14:49.903Z,4.99
2018-02-12T09:15:49.908Z,5.05
2018-02-12T09:16:49.945Z,5.20
2018-02-12T09:17:49.929Z,4.72
2018-02-12T09:18:49.946Z,4.65
2018-02-12T09:19:49.953Z,4.79
2018-02-12T09:20:49.973Z,5.09
2018-02-12T09:21:49.990Z,5.34
2018-02-12T09:22:50.005Z,5.14
2018-02-12T09:23:50.019Z,5.37
2018-02-12T09:24:50.027Z,5.20
2018-02-12T09:25:50.037Z,5.31
2018-02-12T09:26:50.055Z,5.22
2018-02-12T09:27:50.067Z,5.19
2018-02-12T09:28:50.079Z,5.25
2018-02-12T09:29:50.092Z,5.30
2018-02-12T09:30:50.116Z,5.40
2018-02-12T09:31:50.120Z,5.35
2018-02-12T09:32:50.134Z,5.27
2018-02-12T09:33:50.142Z,5.43
2018-02-12T09:34:50.159Z,5.46
2018-02-12T09:35:50.174Z,5.45
2018-02-12T09:36:50.191Z,5.28
2018-02-12T09:37:50.198Z,5.27
2018-02-12T09:38:50.222Z,5.30
2018-02-12T09:39:50.221Z,5.46
2018-02-12T09:40:50.244Z,5.57
2018-02-12T09:41:50.249Z,5.52
2018-02-12T09:42:50.270Z,5.38
2018-02-12T09:43:50.285Z,5.57
2018-02-12T09:44:50.290Z,5.70
2018-02-12T09:45:50.323Z,5.64
2018-02-12T09:46:50.324Z,5.57
2018-02-12T09:47:50.328Z,5.56
2018-02-12T09:48:50.338Z,5.68
2018-02-12T09:49:50.361Z,5.68
2018-02-12T09:50:50.367Z,5.70
2018-02-12T09:51:50.380Z,5.68
2018-02-12T09:52:50.404Z,5.52
2018-02-12T09:53:50.410Z,5.27
2018-02-12T09:54:50.424Z,5.30
2018-02-12T09:55:50.452Z,5.45
2018-02-12T09:56:50.474Z,5.53
2018-02-12T09:57:50.461Z,5.41
2018-02-12T09:58:50.480Z,5.23
2018-02-12T09:59:50.493Z,5.52
2018-02-12T10:00:50.503Z,5.50
2018-02-12T10:01:50.551Z,5.56
2018-02-12T10:02:50.531Z,5.25
2018-02-12T10:03:50.542Z,5.41
2018-02-12T10:04:50.560Z,5.53
2018-02-12T10:05:50.567Z,5.41
2018-02-12T10:06:50.584Z,5.32
2018-02-12T10:07:50.599Z,5.43
2018-02-12T10:08:50.624Z,5.68
2018-02-12T10:09:50.626Z,5.67
2018-02-12T10:10:50.644Z,5.67
2018-02-12T10:11:50.654Z,5.67
2018-02-12T10:12:50.666Z,5.77
2018-02-12T10:13:50.683Z,5.50
2018-02-12T10:14:50.691Z,5.31
2018-02-12T10:15:50.708Z,5.38
2018-02-12T10:16:50.719Z,5.53
2018-02-12T10:17:50.738Z,5.40
2018-02-12T10:18:50.744Z,5.50
2018-02-12T10:19:50.766Z,5.53
2018-02-12T10:20:50.823Z,5.59
2018-02-12T10:21:50.789Z,5.38
2018-02-12T10:22:50.801Z,5.30
2018-02-12T10:23:50.819Z,5.19
2018-02-12T10:24:50.828Z,5.25
2018-02-12T10:25:50.849Z,5.32
2018-02-12T10:26:50.855Z,5.31
2018-02-12T10:27:50.880Z,5.40
2018-02-12T10:28:50.884Z,5.31
2018-02-12T10:29:50.892Z,5.52
2018-02-12T10:30:50.909Z,5.68
2018-02-12T10:31:50.923Z,5.38
2018-02-12T10:32:50.944Z,5.59
2018-02-12T10:33:50.949Z,5.85
2018-02-12T10:34:50.964Z,6.07
2018-02-12T10:35:50.977Z,6.03
2018-02-12T10:36:50.993Z,6.30
2018-02-12T10:37:51.097Z,6.43
2018-02-12T10:38:51.022Z,6.35
2018-02-12T10:39:51.028Z,6.03
2018-02-12T10:40:51.047Z,6.09
2018-02-12T10:41:51.068Z,6.11
2018-02-12T10:42:51.077Z,6.11
2018-02-12T10:43:51.088Z,6.04
2018-02-12T10:44:51.097Z,5.98
2018-02-12T10:45:51.114Z,5.59
2018-02-12T10:46:51.135Z,5.77
2018-02-12T10:47:51.146Z,6.00
2018-02-12T10:48:51.167Z,5.88
2018-02-12T10:49:51.174Z,5.88
2018-02-12T10:50:51.187Z,5.40
2018-02-12T10:51:51.200Z,5.83
2018-02-12T10:52:51.215Z,5.81
2018-02-12T10:53:51.232Z,5.91
2018-02-12T10:54:51.249Z,5.59
2018-02-12T10:55:51.255Z,5.52
2018-02-12T10:56:51.271Z,5.53
2018-02-12T10:57:51.286Z,5.38
2018-02-12T10:58:51.301Z,5.56
2018-02-12T10:59:51.313Z,5.70
2018-02-12T11:00:51.337Z,5.56
2018-02-12T11:01:51.339Z,5.86
2018-02-12T11:02:51.358Z,5.45
2018-02-12T11:03:51.423Z,5.48
2018-02-12T11:04:51.387Z,5.63
2018-02-12T11:05:51.394Z,5.34
2018-02-12T11:06:51.412Z,5.60
2018-02-12T11:07:51.423Z,5.70
2018-02-12T11:08:51.440Z,5.46
2018-02-12T11:09:51.479Z,5.37
2018-02-12T11:10:51.465Z,5.17
2018-02-12T11:11:51.480Z,5.31
2018-02-12T11:12:51.498Z,5.60
2018-02-12T11:13:51.512Z,5.68
2018-02-12T11:14:51.523Z,6.06
2018-02-12T11:15:51.541Z,6.11
2018-02-12T11:16:51.613Z,5.66
2018-02-12T11:17:51.589Z,5.74
2018-02-12T11:18:51.581Z,5.93
2018-02-12T11:19:51.593Z,5.81
2018-02-12T11:20:51.609Z,5.68
2018-02-12T11:21:51.621Z,5.64
2018-02-12T11:22:51.653Z,5.57
2018-02-12T11:23:51.644Z,5.64
2018-02-12T11:24:51.664Z,5.82
2018-02-12T11:25:51.676Z,5.88
2018-02-12T11:26:51.693Z,5.74
2018-02-12T11:27:51.707Z,5.71
2018-02-12T11:28:51.724Z,5.98
2018-02-12T11:29:51.733Z,5.95
2018-02-12T11:30:51.752Z,5.89
2018-02-12T11:31:51.767Z,5.89
2018-02-12T11:32:51.775Z,6.32
2018-02-12T11:33:51.795Z,6.30
2018-02-12T11:34:51.807Z,6.18
2018-02-12T11:35:51.834Z,6.03
2018-02-12T11:36:51.838Z,5.75
2018-02-12T11:37:51.847Z,6.04
2018-02-12T11:38:51.866Z,5.91
2018-02-12T11:39:51.922Z,5.71
2018-02-12T11:40:51.894Z,5.89
2018-02-12T11:41:51.914Z,5.91
2018-02-12T11:42:51.926Z,6.29
2018-02-12T11:43:51.938Z,6.46
2018-02-12T11:44:51.952Z,6.32
2018-02-12T11:45:51.986Z,6.68
2018-02-12T11:46:51.984Z,6.61
2018-02-12T11:47:51.999Z,6.68
2018-02-12T11:48:52.015Z,6.44
2018-02-12T11:49:52.023Z,6.62
2018-02-12T11:50:52.042Z,6.68
2018-02-12T11:51:52.062Z,6.89
2018-02-12T11:52:52.074Z,7.01
2018-02-12T11:53:52.088Z,7.05
2018-02-12T11:54:52.104Z,6.62
2018-02-12T11:55:52.132Z,6.77
2018-02-12T11:56:52.134Z,6.61
2018-02-12T11:57:52.177Z,6.48
2018-02-12T11:58:52.186Z,6.11
2018-02-12T11:59:52.174Z,6.04
2018-02-12T12:00:52.189Z,6.11
2018-02-12T12:01:52.202Z,5.95
2018-02-12T12:02:52.220Z,6.03
2018-02-12T12:03:52.232Z,6.13
2018-02-12T12:04:52.249Z,5.92
2018-02-12T12:05:52.262Z,6.25
2018-02-12T12:06:52.278Z,6.32
2018-02-12T12:07:52.291Z,5.91
2018-02-12T12:08:52.310Z,5.75
2018-02-12T12:09:52.326Z,5.88
2018-02-12T12:10:52.344Z,6.00
2018-02-12T12:11:52.363Z,5.85
2018-02-12T12:12:52.371Z,6.00
2018-02-12T12:13:52.493Z,6.01
2018-02-12T12:14:52.396Z,6.09
2018-02-12T12:15:52.430Z,6.00
2018-02-12T12:16:52.428Z,6.29
2018-02-12T12:17:52.453Z,6.32
2018-02-12T12:18:52.479Z,6.48
2018-02-12T12:19:52.502Z,6.58
2018-02-12T12:20:52.492Z,6.83
2018-02-12T12:21:52.503Z,6.91
2018-02-12T12:22:52.523Z,6.53
2018-02-12T12:23:52.536Z,6.54
2018-02-12T12:24:52.557Z,6.09
2018-02-12T12:25:52.566Z,6.38
2018-02-12T12:26:52.586Z,6.18
2018-02-12T12:27:52.603Z,6.09
2018-02-12T12:28:52.615Z,5.68
2018-02-12T12:29:52.628Z,5.45
2018-02-12T12:30:52.642Z,5.30
2018-02-12T12:31:52.661Z,5.30
2018-02-12T12:32:52.676Z,5.27
2018-02-12T12:33:52.692Z,5.25
2018-02-12T12:34:52.718Z,5.22
2018-02-12T12:35:52.717Z,5.25
2018-02-12T12:36:52.730Z,5.22
2018-02-12T12:37:52.749Z,4.80
2018-02-12T12:38:52.765Z,4.51
2018-02-12T12:39:52.792Z,4.55
2018-02-12T12:40:52.802Z,4.92
2018-02-12T12:41:52.811Z,4.72
2018-02-12T12:42:52.828Z,4.89
2018-02-12T12:43:52.839Z,4.92
2018-02-12T12:44:52.859Z,5.37
2018-02-12T12:45:52.873Z,5.41
2018-02-12T12:46:52.889Z,5.23
2018-02-12T12:47:52.897Z,5.32
2018-02-12T12:48:52.907Z,5.04
2018-02-12T12:49:52.931Z,5.22
2018-02-12T12:50:52.946Z,5.46
2018-02-12T12:51:52.955Z,5.37
2018-02-12T12:52:52.977Z,5.23
2018-02-12T12:53:52.984Z,5.05
2018-02-12T12:54:53.000Z,5.37
2018-02-12T12:55:53.010Z,5.68
2018-02-12T12:56:53.028Z,5.32
2018-02-12T12:57:53.054Z,5.55
2018-02-12T12:58:53.056Z,5.68
2018-02-12T12:59:53.070Z,6.03
2018-02-12T13:00:53.086Z,6.29
2018-02-12T13:01:53.118Z,6.28
2018-02-12T13:02:53.113Z,6.33
2018-02-12T13:03:53.127Z,5.78
2018-02-12T13:04:53.155Z,6.16
2018-02-12T13:05:53.162Z,5.68
2018-02-12T13:06:53.171Z,5.77
2018-02-12T13:07:53.186Z,5.96
2018-02-12T13:08:53.202Z,5.88
2018-02-12T13:09:53.219Z,5.53
2018-02-12T13:10:53.270Z,5.14
2018-02-12T13:11:53.243Z,4.84
2018-02-12T13:12:53.259Z,4.50
2018-02-12T13:13:53.276Z,3.88
2018-02-12T13:14:53.294Z,3.78
2018-02-12T13:15:53.311Z,3.53
2018-02-12T13:16:53.319Z,3.65
2018-02-12T13:17:53.336Z,3.64
2018-02-12T13:18:53.385Z,3.52